sensor_id;sensor_type;location;lat;lon;timestamp;P1;durP1;ratioP1;P2;durP2;ratioP2
11655;SDS011;5884;43.618;1.438;2022-10-16T04:45:49;16.60;;;12.17;;
11655;SDS011;5884;43.618;1.438;2022-10-16T04:48:17;16.57;;;12.83;;
11655;SDS011;5884;43.618;1.438;2022-10-16T04:50:44;15.67;;;12.43;;
11655;SDS011;5884;43.618;1.438;2022-10-16T04:53:11;17.47;;;12.47;;
11655;SDS011;5884;43.618;1.438;2022-10-16T04:55:39;18.97;;;12.13;;
11655;SDS011;5884;43.618;1.438;2022-10-16T04:58:07;14.37;;;11.10;;
11655;SDS011;5884;43.618;1.438;2022-10-16T05:00:34;16.53;;;12.00;;
11655;SDS011;5884;43.618;1.438;2022-10-16T05:03:04;17.53;;;12.43;;
11655;SDS011;5884;43.618;1.438;2022-10-16T05:05:33;16.50;;;12.03;;
11655;SDS011;5884;43.618;1.438;2022-10-16T05:08:01;19.20;;;12.03;;
11655;SDS011;5884;43.618;1.438;2022-10-16T05:10:29;18.13;;;12.90;;
11655;SDS011;5884;43.618;1.438;2022-10-16T05:12:56;17.83;;;11.73;;
11655;SDS011;5884;43.618;1.438;2022-10-16T05:15:23;15.63;;;11.80;;
11655;SDS011;5884;43.618;1.438;2022-10-16T05:17:52;17.40;;;12.17;;
11655;SDS011;5884;43.618;1.438;2022-10-16T05:20:21;17.40;;;12.17;;
11655;SDS011;5884;43.618;1.438;2022-10-16T05:22:49;15.77;;;11.93;;
11655;SDS011;5884;43.618;1.438;2022-10-16T05:25:16;18.50;;;12.03;;
11655;SDS011;5884;43.618;1.438;2022-10-16T05:27:46;16.80;;;11.83;;
11655;SDS011;5884;43.618;1.438;2022-10-16T05:30:14;18.47;;;11.80;;
11655;SDS011;5884;43.618;1.438;2022-10-16T05:32:45;15.30;;;11.80;;
11655;SDS011;5884;43.618;1.438;2022-10-16T05:35:14;15.93;;;11.93;;
11655;SDS011;5884;43.618;1.438;2022-10-16T05:37:43;15.83;;;11.13;;
11655;SDS011;5884;43.618;1.438;2022-10-16T05:40:12;20.13;;;12.03;;
11655;SDS011;5884;43.618;1.438;2022-10-16T05:42:40;15.50;;;11.70;;
11655;SDS011;5884;43.618;1.438;2022-10-16T05:45:08;13.63;;;10.87;;
11655;SDS011;5884;43.618;1.438;2022-10-16T05:47:37;17.30;;;11.83;;
11655;SDS011;5884;43.618;1.438;2022-10-16T05:50:05;17.47;;;12.10;;
11655;SDS011;5884;43.618;1.438;2022-10-16T05:52:33;13.07;;;11.60;;
11655;SDS011;5884;43.618;1.438;2022-10-16T05:55:02;24.23;;;13.00;;
11655;SDS011;5884;43.618;1.438;2022-10-16T05:57:30;14.03;;;11.60;;
11655;SDS011;5884;43.618;1.438;2022-10-16T05:59:58;16.43;;;12.13;;
11655;SDS011;5884;43.618;1.438;2022-10-16T06:02:25;19.17;;;11.23;;
11655;SDS011;5884;43.618;1.438;2022-10-16T06:04:52;13.30;;;11.90;;
11655;SDS011;5884;43.618;1.438;2022-10-16T06:07:20;18.77;;;12.37;;
11655;SDS011;5884;43.618;1.438;2022-10-16T06:09:48;14.43;;;12.40;;
11655;SDS011;5884;43.618;1.438;2022-10-16T06:12:17;20.33;;;12.20;;
11655;SDS011;5884;43.618;1.438;2022-10-16T06:14:44;17.23;;;12.13;;
11655;SDS011;5884;43.618;1.438;2022-10-16T06:17:12;17.40;;;12.97;;
11655;SDS011;5884;43.618;1.438;2022-10-16T06:19:40;21.97;;;13.27;;
11655;SDS011;5884;43.618;1.438;2022-10-16T06:22:07;20.03;;;12.40;;
11655;SDS011;5884;43.618;1.438;2022-10-16T06:24:34;19.50;;;11.97;;
11655;SDS011;5884;43.618;1.438;2022-10-16T06:27:02;17.63;;;12.73;;
11655;SDS011;5884;43.618;1.438;2022-10-16T06:29:31;14.63;;;12.07;;
11655;SDS011;5884;43.618;1.438;2022-10-16T06:31:59;16.80;;;12.50;;
11655;SDS011;5884;43.618;1.438;2022-10-16T06:34:26;16.97;;;12.53;;
11655;SDS011;5884;43.618;1.438;2022-10-16T06:36:53;16.53;;;13.03;;
11655;SDS011;5884;43.618;1.438;2022-10-16T06:39:21;16.43;;;12.70;;
11655;SDS011;5884;43.618;1.438;2022-10-16T06:41:48;15.57;;;12.70;;
11655;SDS011;5884;43.618;1.438;2022-10-16T06:44:15;16.13;;;13.17;;
11655;SDS011;5884;43.618;1.438;2022-10-16T06:46:44;19.03;;;13.10;;
11655;SDS011;5884;43.618;1.438;2022-10-16T06:49:11;20.20;;;13.27;;
11655;SDS011;5884;43.618;1.438;2022-10-16T06:51:40;20.47;;;13.37;;
11655;SDS011;5884;43.618;1.438;2022-10-16T06:54:08;19.87;;;12.73;;
11655;SDS011;5884;43.618;1.438;2022-10-16T06:56:35;18.97;;;13.13;;
11655;SDS011;5884;43.618;1.438;2022-10-16T06:59:02;17.17;;;12.77;;
11655;SDS011;5884;43.618;1.438;2022-10-16T07:01:30;17.03;;;12.97;;
11655;SDS011;5884;43.618;1.438;2022-10-16T07:03:59;17.40;;;12.57;;
11655;SDS011;5884;43.618;1.438;2022-10-16T07:06:30;16.93;;;12.03;;
11655;SDS011;5884;43.618;1.438;2022-10-16T07:09:02;16.37;;;12.13;;
11655;SDS011;5884;43.618;1.438;2022-10-16T07:11:32;17.30;;;12.00;;
11655;SDS011;5884;43.618;1.438;2022-10-16T07:13:59;16.03;;;12.13;;
11655;SDS011;5884;43.618;1.438;2022-10-16T07:16:27;17.63;;;11.53;;
11655;SDS011;5884;43.618;1.438;2022-10-16T07:18:57;18.77;;;12.33;;
11655;SDS011;5884;43.618;1.438;2022-10-16T07:21:28;18.70;;;11.93;;
11655;SDS011;5884;43.618;1.438;2022-10-16T07:24:00;16.33;;;12.00;;
11655;SDS011;5884;43.618;1.438;2022-10-16T07:26:32;15.43;;;12.23;;
11655;SDS011;5884;43.618;1.438;2022-10-16T07:29:02;17.60;;;11.57;;
11655;SDS011;5884;43.618;1.438;2022-10-16T07:31:29;14.37;;;11.63;;
11655;SDS011;5884;43.618;1.438;2022-10-16T07:33:57;17.97;;;11.90;;
11655;SDS011;5884;43.618;1.438;2022-10-16T07:36:26;14.63;;;11.07;;
11655;SDS011;5884;43.618;1.438;2022-10-16T07:38:53;15.43;;;10.63;;
11655;SDS011;5884;43.618;1.438;2022-10-16T07:41:21;13.40;;;10.40;;
11655;SDS011;5884;43.618;1.438;2022-10-16T07:43:48;12.63;;;10.07;;
11655;SDS011;5884;43.618;1.438;2022-10-16T07:46:18;14.00;;;10.63;;
11655;SDS011;5884;43.618;1.438;2022-10-16T07:48:46;11.50;;;9.30;;
11655;SDS011;5884;43.618;1.438;2022-10-16T07:51:16;13.27;;;10.27;;
11655;SDS011;5884;43.618;1.438;2022-10-16T07:53:46;13.03;;;9.90;;
11655;SDS011;5884;43.618;1.438;2022-10-16T07:56:13;11.83;;;9.07;;
11655;SDS011;5884;43.618;1.438;2022-10-16T07:58:42;13.70;;;9.20;;
11655;SDS011;5884;43.618;1.438;2022-10-16T08:01:11;14.03;;;9.47;;
11655;SDS011;5884;43.618;1.438;2022-10-16T08:03:41;10.67;;;9.00;;
11655;SDS011;5884;43.618;1.438;2022-10-16T08:06:08;12.93;;;9.47;;
11655;SDS011;5884;43.618;1.438;2022-10-16T08:08:38;11.33;;;8.87;;
11655;SDS011;5884;43.618;1.438;2022-10-16T08:11:05;11.63;;;8.50;;
11655;SDS011;5884;43.618;1.438;2022-10-16T08:13:33;15.77;;;9.37;;
11655;SDS011;5884;43.618;1.438;2022-10-16T08:16:00;10.13;;;8.87;;
11655;SDS011;5884;43.618;1.438;2022-10-16T08:18:28;11.30;;;9.10;;
11655;SDS011;5884;43.618;1.438;2022-10-16T08:20:56;10.53;;;9.43;;
11655;SDS011;5884;43.618;1.438;2022-10-16T08:23:25;13.20;;;10.10;;
11655;SDS011;5884;43.618;1.438;2022-10-16T08:25:54;12.30;;;10.13;;
11655;SDS011;5884;43.618;1.438;2022-10-16T08:28:27;13.70;;;10.43;;
11655;SDS011;5884;43.618;1.438;2022-10-16T08:30:55;13.40;;;10.47;;
11655;SDS011;5884;43.618;1.438;2022-10-16T08:33:22;14.63;;;10.43;;
11655;SDS011;5884;43.618;1.438;2022-10-16T08:35:50;14.70;;;10.37;;
11655;SDS011;5884;43.618;1.438;2022-10-16T08:38:18;17.23;;;10.80;;
11655;SDS011;5884;43.618;1.438;2022-10-16T08:40:46;12.97;;;10.73;;
11655;SDS011;5884;43.618;1.438;2022-10-16T08:43:21;13.70;;;10.83;;
11655;SDS011;5884;43.618;1.438;2022-10-16T08:46:11;15.93;;;10.47;;
11655;SDS011;5884;43.618;1.438;2022-10-16T08:48:51;13.50;;;10.90;;
11655;SDS011;5884;43.618;1.438;2022-10-16T08:51:22;16.07;;;10.93;;
11655;SDS011;5884;43.618;1.438;2022-10-16T08:53:52;13.47;;;10.47;;
11655;SDS011;5884;43.618;1.438;2022-10-16T08:56:22;16.40;;;10.27;;
11655;SDS011;5884;43.618;1.438;2022-10-16T08:58:52;14.50;;;10.63;;
11655;SDS011;5884;43.618;1.438;2022-10-16T09:01:21;16.63;;;10.17;;
11655;SDS011;5884;43.618;1.438;2022-10-16T09:03:56;16.43;;;9.90;;
11655;SDS011;5884;43.618;1.438;2022-10-16T09:06:53;12.90;;;9.80;;
11655;SDS011;5884;43.618;1.438;2022-10-16T09:12:27;13.23;;;9.57;;
11655;SDS011;5884;43.618;1.438;2022-10-16T09:15:06;11.73;;;9.10;;
11655;SDS011;5884;43.618;1.438;2022-10-16T09:17:46;14.80;;;9.80;;
11655;SDS011;5884;43.618;1.438;2022-10-16T09:20:30;15.03;;;9.50;;
11655;SDS011;5884;43.618;1.438;2022-10-16T09:23:15;15.87;;;8.83;;
11655;SDS011;5884;43.618;1.438;2022-10-16T09:25:45;13.43;;;8.80;;
11655;SDS011;5884;43.618;1.438;2022-10-16T09:28:15;13.97;;;8.23;;
11655;SDS011;5884;43.618;1.438;2022-10-16T09:30:45;13.13;;;8.23;;
11655;SDS011;5884;43.618;1.438;2022-10-16T09:33:13;13.47;;;8.43;;
11655;SDS011;5884;43.618;1.438;2022-10-16T09:35:44;17.97;;;8.53;;
11655;SDS011;5884;43.618;1.438;2022-10-16T09:38:21;12.07;;;7.63;;
11655;SDS011;5884;43.618;1.438;2022-10-16T09:40:54;15.27;;;8.03;;
11655;SDS011;5884;43.618;1.438;2022-10-16T09:43:24;10.80;;;7.93;;
11655;SDS011;5884;43.618;1.438;2022-10-16T09:46:00;13.10;;;7.33;;
11655;SDS011;5884;43.618;1.438;2022-10-16T09:48:31;16.03;;;7.53;;
11655;SDS011;5884;43.618;1.438;2022-10-16T09:51:05;14.63;;;7.07;;
11655;SDS011;5884;43.618;1.438;2022-10-16T09:53:53;15.77;;;7.20;;
11655;SDS011;5884;43.618;1.438;2022-10-16T09:56:24;14.37;;;7.57;;
11655;SDS011;5884;43.618;1.438;2022-10-16T09:58:53;11.27;;;7.47;;
11655;SDS011;5884;43.618;1.438;2022-10-16T10:01:25;11.77;;;7.10;;
11655;SDS011;5884;43.618;1.438;2022-10-16T10:03:57;12.20;;;6.87;;
11655;SDS011;5884;43.618;1.438;2022-10-16T10:06:29;8.77;;;6.50;;
11655;SDS011;5884;43.618;1.438;2022-10-16T10:09:00;11.27;;;6.73;;
11655;SDS011;5884;43.618;1.438;2022-10-16T10:11:44;13.00;;;7.07;;
11655;SDS011;5884;43.618;1.438;2022-10-16T10:14:22;11.10;;;7.10;;
11655;SDS011;5884;43.618;1.438;2022-10-16T10:17:06;12.97;;;7.20;;
11655;SDS011;5884;43.618;1.438;2022-10-16T10:19:47;9.10;;;6.20;;
11655;SDS011;5884;43.618;1.438;2022-10-16T10:22:17;13.23;;;6.47;;
11655;SDS011;5884;43.618;1.438;2022-10-16T10:24:55;13.17;;;7.00;;
11655;SDS011;5884;43.618;1.438;2022-10-16T10:27:30;10.53;;;6.23;;
11655;SDS011;5884;43.618;1.438;2022-10-16T10:30:06;9.00;;;6.10;;
11655;SDS011;5884;43.618;1.438;2022-10-16T10:32:46;11.03;;;5.50;;
11655;SDS011;5884;43.618;1.438;2022-10-16T10:35:25;15.23;;;6.27;;
11655;SDS011;5884;43.618;1.438;2022-10-16T10:38:16;12.03;;;5.97;;
11655;SDS011;5884;43.618;1.438;2022-10-16T10:40:56;7.37;;;5.80;;
11655;SDS011;5884;43.618;1.438;2022-10-16T10:43:44;10.00;;;6.07;;
11655;SDS011;5884;43.618;1.438;2022-10-16T10:46:23;10.60;;;6.10;;
11655;SDS011;5884;43.618;1.438;2022-10-16T10:49:07;9.20;;;5.73;;
11655;SDS011;5884;43.618;1.438;2022-10-16T10:51:52;7.77;;;6.00;;
11655;SDS011;5884;43.618;1.438;2022-10-16T10:54:32;10.37;;;5.70;;
11655;SDS011;5884;43.618;1.438;2022-10-16T10:57:09;10.77;;;5.70;;
11655;SDS011;5884;43.618;1.438;2022-10-16T10:59:49;8.53;;;5.77;;
11655;SDS011;5884;43.618;1.438;2022-10-16T11:02:40;10.00;;;5.87;;
11655;SDS011;5884;43.618;1.438;2022-10-16T11:05:19;9.30;;;5.93;;
11655;SDS011;5884;43.618;1.438;2022-10-16T11:08:09;15.27;;;5.67;;
11655;SDS011;5884;43.618;1.438;2022-10-16T11:10:45;10.77;;;5.70;;
11655;SDS011;5884;43.618;1.438;2022-10-16T11:13:19;11.80;;;5.17;;
11655;SDS011;5884;43.618;1.438;2022-10-16T11:15:58;15.20;;;5.40;;
11655;SDS011;5884;43.618;1.438;2022-10-16T11:18:30;8.27;;;4.67;;
11655;SDS011;5884;43.618;1.438;2022-10-16T11:21:11;8.03;;;4.97;;
11655;SDS011;5884;43.618;1.438;2022-10-16T11:23:42;8.77;;;4.97;;
11655;SDS011;5884;43.618;1.438;2022-10-16T11:26:18;9.17;;;5.33;;
11655;SDS011;5884;43.618;1.438;2022-10-16T11:28:50;10.07;;;5.10;;
11655;SDS011;5884;43.618;1.438;2022-10-16T11:31:22;10.70;;;5.47;;
11655;SDS011;5884;43.618;1.438;2022-10-16T11:33:59;7.83;;;4.93;;
11655;SDS011;5884;43.618;1.438;2022-10-16T11:36:35;7.77;;;5.10;;
11655;SDS011;5884;43.618;1.438;2022-10-16T11:39:09;9.43;;;5.00;;
11655;SDS011;5884;43.618;1.438;2022-10-16T11:41:47;9.63;;;5.10;;
11655;SDS011;5884;43.618;1.438;2022-10-16T11:44:23;9.33;;;5.50;;
11655;SDS011;5884;43.618;1.438;2022-10-16T11:47:08;10.20;;;4.43;;
11655;SDS011;5884;43.618;1.438;2022-10-16T11:49:50;9.50;;;4.70;;
11655;SDS011;5884;43.618;1.438;2022-10-16T11:52:28;10.13;;;4.50;;
11655;SDS011;5884;43.618;1.438;2022-10-16T11:55:04;7.33;;;4.40;;
11655;SDS011;5884;43.618;1.438;2022-10-16T11:57:41;11.17;;;4.83;;
11655;SDS011;5884;43.618;1.438;2022-10-16T12:00:15;6.93;;;4.60;;
11655;SDS011;5884;43.618;1.438;2022-10-16T12:02:50;9.20;;;5.10;;
11655;SDS011;5884;43.618;1.438;2022-10-16T12:05:28;9.20;;;4.57;;
11655;SDS011;5884;43.618;1.438;2022-10-16T12:08:08;8.27;;;4.63;;
11655;SDS011;5884;43.618;1.438;2022-10-16T12:10:37;7.20;;;4.30;;
11655;SDS011;5884;43.618;1.438;2022-10-16T12:16:06;12.17;;;4.20;;
11655;SDS011;5884;43.618;1.438;2022-10-16T12:18:49;8.03;;;4.30;;
11655;SDS011;5884;43.618;1.438;2022-10-16T12:21:37;12.13;;;3.90;;
11655;SDS011;5884;43.618;1.438;2022-10-16T12:24:06;7.50;;;4.40;;
11655;SDS011;5884;43.618;1.438;2022-10-16T12:26:47;8.10;;;4.47;;
11655;SDS011;5884;43.618;1.438;2022-10-16T12:29:21;20.20;;;4.50;;
11655;SDS011;5884;43.618;1.438;2022-10-16T12:31:56;8.83;;;4.23;;
11655;SDS011;5884;43.618;1.438;2022-10-16T12:34:26;7.97;;;3.90;;
11655;SDS011;5884;43.618;1.438;2022-10-16T12:36:56;9.40;;;4.10;;
11655;SDS011;5884;43.618;1.438;2022-10-16T12:39:42;11.53;;;4.20;;
11655;SDS011;5884;43.618;1.438;2022-10-16T12:42:23;9.30;;;3.87;;
11655;SDS011;5884;43.618;1.438;2022-10-16T12:44:59;6.10;;;3.40;;
11655;SDS011;5884;43.618;1.438;2022-10-16T12:47:46;7.93;;;3.60;;
11655;SDS011;5884;43.618;1.438;2022-10-16T12:53:17;6.77;;;3.43;;
11655;SDS011;5884;43.618;1.438;2022-10-16T12:55:52;7.80;;;3.13;;
11655;SDS011;5884;43.618;1.438;2022-10-16T12:58:51;7.83;;;3.77;;
11655;SDS011;5884;43.618;1.438;2022-10-16T13:01:34;5.97;;;3.10;;
11655;SDS011;5884;43.618;1.438;2022-10-16T13:07:15;8.10;;;3.30;;
11655;SDS011;5884;43.618;1.438;2022-10-16T13:10:06;9.97;;;3.47;;
11655;SDS011;5884;43.618;1.438;2022-10-16T13:15:57;8.97;;;3.20;;
11655;SDS011;5884;43.618;1.438;2022-10-16T13:18:38;5.67;;;2.80;;
11655;SDS011;5884;43.618;1.438;2022-10-16T13:21:23;7.57;;;2.93;;
11655;SDS011;5884;43.618;1.438;2022-10-16T13:24:03;7.00;;;2.97;;
11655;SDS011;5884;43.618;1.438;2022-10-16T13:26:44;6.30;;;2.77;;
11655;SDS011;5884;43.618;1.438;2022-10-16T13:29:20;7.13;;;2.63;;
11655;SDS011;5884;43.618;1.438;2022-10-16T13:31:47;6.43;;;2.80;;
11655;SDS011;5884;43.618;1.438;2022-10-16T13:34:15;6.47;;;3.20;;
11655;SDS011;5884;43.618;1.438;2022-10-16T13:36:46;5.23;;;3.00;;
11655;SDS011;5884;43.618;1.438;2022-10-16T13:39:20;6.53;;;3.03;;
11655;SDS011;5884;43.618;1.438;2022-10-16T13:42:02;7.07;;;3.23;;
11655;SDS011;5884;43.618;1.438;2022-10-16T13:44:35;9.07;;;3.17;;
11655;SDS011;5884;43.618;1.438;2022-10-16T13:47:12;9.83;;;3.10;;
11655;SDS011;5884;43.618;1.438;2022-10-16T13:49:43;5.73;;;2.50;;
11655;SDS011;5884;43.618;1.438;2022-10-16T13:52:18;7.63;;;2.90;;
11655;SDS011;5884;43.618;1.438;2022-10-16T13:54:47;9.50;;;3.17;;
11655;SDS011;5884;43.618;1.438;2022-10-16T13:57:14;6.73;;;3.20;;
11655;SDS011;5884;43.618;1.438;2022-10-16T13:59:44;9.93;;;3.00;;
11655;SDS011;5884;43.618;1.438;2022-10-16T14:02:17;7.57;;;3.20;;
11655;SDS011;5884;43.618;1.438;2022-10-16T14:04:48;6.27;;;2.80;;
11655;SDS011;5884;43.618;1.438;2022-10-16T14:07:18;7.40;;;2.70;;
11655;SDS011;5884;43.618;1.438;2022-10-16T14:09:50;9.97;;;2.60;;
11655;SDS011;5884;43.618;1.438;2022-10-16T14:12:19;8.73;;;2.40;;
11655;SDS011;5884;43.618;1.438;2022-10-16T14:14:50;9.73;;;2.70;;
11655;SDS011;5884;43.618;1.438;2022-10-16T14:17:20;7.40;;;2.90;;
11655;SDS011;5884;43.618;1.438;2022-10-16T14:19:53;10.33;;;3.00;;
11655;SDS011;5884;43.618;1.438;2022-10-16T14:22:26;7.03;;;3.03;;
11655;SDS011;5884;43.618;1.438;2022-10-16T14:24:57;7.00;;;3.03;;
11655;SDS011;5884;43.618;1.438;2022-10-16T14:27:27;7.73;;;3.10;;
11655;SDS011;5884;43.618;1.438;2022-10-16T14:32:54;7.87;;;2.83;;
11655;SDS011;5884;43.618;1.438;2022-10-16T14:35:27;9.53;;;2.90;;
11655;SDS011;5884;43.618;1.438;2022-10-16T14:37:58;9.43;;;2.80;;
11655;SDS011;5884;43.618;1.438;2022-10-16T14:40:27;7.77;;;2.97;;
11655;SDS011;5884;43.618;1.438;2022-10-16T14:42:57;7.27;;;2.67;;
11655;SDS011;5884;43.618;1.438;2022-10-16T14:45:28;8.07;;;2.90;;
11655;SDS011;5884;43.618;1.438;2022-10-16T14:47:58;9.47;;;2.80;;
11655;SDS011;5884;43.618;1.438;2022-10-16T14:50:29;10.27;;;2.97;;
11655;SDS011;5884;43.618;1.438;2022-10-16T14:52:56;8.50;;;2.70;;
11655;SDS011;5884;43.618;1.438;2022-10-16T14:55:25;6.77;;;3.10;;
11655;SDS011;5884;43.618;1.438;2022-10-16T14:57:52;8.00;;;2.93;;
11655;SDS011;5884;43.618;1.438;2022-10-16T15:00:22;8.43;;;2.83;;
11655;SDS011;5884;43.618;1.438;2022-10-16T15:02:52;4.73;;;2.63;;
11655;SDS011;5884;43.618;1.438;2022-10-16T15:05:19;10.27;;;2.70;;
11655;SDS011;5884;43.618;1.438;2022-10-16T15:07:49;8.90;;;2.90;;
11655;SDS011;5884;43.618;1.438;2022-10-16T15:10:18;7.93;;;2.83;;
11655;SDS011;5884;43.618;1.438;2022-10-16T15:12:47;13.37;;;3.10;;
11655;SDS011;5884;43.618;1.438;2022-10-16T15:15:23;9.73;;;2.83;;
11655;SDS011;5884;43.618;1.438;2022-10-16T15:18:01;8.47;;;3.17;;
11655;SDS011;5884;43.618;1.438;2022-10-16T15:20:30;5.63;;;2.80;;
11655;SDS011;5884;43.618;1.438;2022-10-16T15:23:00;7.93;;;3.23;;
11655;SDS011;5884;43.618;1.438;2022-10-16T15:25:33;8.50;;;2.90;;
11655;SDS011;5884;43.618;1.438;2022-10-16T15:28:07;7.13;;;3.00;;
11655;SDS011;5884;43.618;1.438;2022-10-16T15:30:36;5.87;;;2.80;;
11655;SDS011;5884;43.618;1.438;2022-10-16T15:33:08;5.70;;;2.80;;
11655;SDS011;5884;43.618;1.438;2022-10-16T15:35:40;7.77;;;2.80;;
11655;SDS011;5884;43.618;1.438;2022-10-16T15:38:09;9.70;;;3.23;;
11655;SDS011;5884;43.618;1.438;2022-10-16T15:40:39;5.60;;;2.63;;
11655;SDS011;5884;43.618;1.438;2022-10-16T15:43:06;9.07;;;3.50;;
11655;SDS011;5884;43.618;1.438;2022-10-16T15:45:35;8.47;;;3.00;;
11655;SDS011;5884;43.618;1.438;2022-10-16T15:48:03;9.07;;;3.33;;
11655;SDS011;5884;43.618;1.438;2022-10-16T15:50:33;9.37;;;3.07;;
11655;SDS011;5884;43.618;1.438;2022-10-16T15:53:03;8.10;;;3.10;;
11655;SDS011;5884;43.618;1.438;2022-10-16T15:55:30;11.53;;;3.47;;
11655;SDS011;5884;43.618;1.438;2022-10-16T15:57:57;10.60;;;3.00;;
11655;SDS011;5884;43.618;1.438;2022-10-16T16:00:25;10.30;;;3.30;;
11655;SDS011;5884;43.618;1.438;2022-10-16T16:02:53;10.23;;;3.63;;
11655;SDS011;5884;43.618;1.438;2022-10-16T16:05:22;7.43;;;3.37;;
11655;SDS011;5884;43.618;1.438;2022-10-16T16:07:50;12.23;;;3.70;;
11655;SDS011;5884;43.618;1.438;2022-10-16T16:10:17;9.97;;;3.10;;
11655;SDS011;5884;43.618;1.438;2022-10-16T16:12:45;9.17;;;2.90;;
11655;SDS011;5884;43.618;1.438;2022-10-16T16:15:17;8.03;;;2.97;;
11655;SDS011;5884;43.618;1.438;2022-10-16T16:17:45;8.13;;;2.73;;
11655;SDS011;5884;43.618;1.438;2022-10-16T16:20:12;8.93;;;3.20;;
11655;SDS011;5884;43.618;1.438;2022-10-16T16:22:42;9.67;;;3.47;;
11655;SDS011;5884;43.618;1.438;2022-10-16T16:25:09;11.07;;;3.00;;
11655;SDS011;5884;43.618;1.438;2022-10-16T16:27:37;8.70;;;3.07;;
11655;SDS011;5884;43.618;1.438;2022-10-16T16:30:05;13.53;;;3.30;;
11655;SDS011;5884;43.618;1.438;2022-10-16T16:32:34;8.60;;;3.03;;
11655;SDS011;5884;43.618;1.438;2022-10-16T16:35:01;10.40;;;3.47;;
11655;SDS011;5884;43.618;1.438;2022-10-16T16:37:32;16.40;;;3.60;;
11655;SDS011;5884;43.618;1.438;2022-10-16T16:40:01;7.90;;;3.20;;
11655;SDS011;5884;43.618;1.438;2022-10-16T16:42:29;6.90;;;3.47;;
11655;SDS011;5884;43.618;1.438;2022-10-16T16:44:57;9.67;;;3.17;;
11655;SDS011;5884;43.618;1.438;2022-10-16T16:47:24;9.10;;;3.13;;
11655;SDS011;5884;43.618;1.438;2022-10-16T16:49:51;8.43;;;3.03;;
11655;SDS011;5884;43.618;1.438;2022-10-16T16:52:18;10.63;;;3.57;;
11655;SDS011;5884;43.618;1.438;2022-10-16T16:54:47;10.10;;;3.27;;
11655;SDS011;5884;43.618;1.438;2022-10-16T16:57:18;8.77;;;3.30;;
11655;SDS011;5884;43.618;1.438;2022-10-16T16:59:46;14.80;;;3.93;;
11655;SDS011;5884;43.618;1.438;2022-10-16T17:02:16;12.23;;;3.17;;
11655;SDS011;5884;43.618;1.438;2022-10-16T17:04:43;7.33;;;3.40;;
11655;SDS011;5884;43.618;1.438;2022-10-16T17:07:10;7.50;;;3.43;;
11655;SDS011;5884;43.618;1.438;2022-10-16T17:09:38;7.83;;;3.23;;
11655;SDS011;5884;43.618;1.438;2022-10-16T17:12:05;10.37;;;3.63;;
11655;SDS011;5884;43.618;1.438;2022-10-16T17:14:34;7.93;;;3.00;;
11655;SDS011;5884;43.618;1.438;2022-10-16T17:17:01;8.57;;;3.23;;
11655;SDS011;5884;43.618;1.438;2022-10-16T17:19:30;8.10;;;3.30;;
11655;SDS011;5884;43.618;1.438;2022-10-16T17:21:58;9.40;;;3.50;;
11655;SDS011;5884;43.618;1.438;2022-10-16T17:24:25;8.33;;;3.30;;
11655;SDS011;5884;43.618;1.438;2022-10-16T17:26:52;7.77;;;3.00;;
11655;SDS011;5884;43.618;1.438;2022-10-16T17:29:19;9.93;;;3.50;;
11655;SDS011;5884;43.618;1.438;2022-10-16T17:31:48;9.50;;;3.77;;
11655;SDS011;5884;43.618;1.438;2022-10-16T17:34:15;11.93;;;3.67;;
11655;SDS011;5884;43.618;1.438;2022-10-16T17:36:43;6.60;;;3.43;;
11655;SDS011;5884;43.618;1.438;2022-10-16T17:39:12;14.77;;;4.00;;
11655;SDS011;5884;43.618;1.438;2022-10-16T17:41:42;7.63;;;3.67;;
11655;SDS011;5884;43.618;1.438;2022-10-16T17:44:10;8.43;;;3.67;;
11655;SDS011;5884;43.618;1.438;2022-10-16T17:46:44;11.77;;;4.37;;
11655;SDS011;5884;43.618;1.438;2022-10-16T17:49:14;10.60;;;3.63;;
11655;SDS011;5884;43.618;1.438;2022-10-16T17:51:42;8.17;;;3.43;;
11655;SDS011;5884;43.618;1.438;2022-10-16T17:54:10;9.13;;;3.67;;
11655;SDS011;5884;43.618;1.438;2022-10-16T17:56:39;6.93;;;3.77;;
11655;SDS011;5884;43.618;1.438;2022-10-16T17:59:08;10.27;;;4.43;;
11655;SDS011;5884;43.618;1.438;2022-10-16T18:01:37;7.40;;;4.00;;
11655;SDS011;5884;43.618;1.438;2022-10-16T18:04:09;7.83;;;3.57;;
11655;SDS011;5884;43.618;1.438;2022-10-16T18:06:40;8.70;;;3.50;;
11655;SDS011;5884;43.618;1.438;2022-10-16T18:09:10;7.77;;;3.50;;
11655;SDS011;5884;43.618;1.438;2022-10-16T18:11:42;13.10;;;4.20;;
11655;SDS011;5884;43.618;1.438;2022-10-16T18:14:10;11.83;;;3.50;;
11655;SDS011;5884;43.618;1.438;2022-10-16T18:16:39;11.47;;;3.73;;
11655;SDS011;5884;43.618;1.438;2022-10-16T18:19:07;14.47;;;4.00;;
11655;SDS011;5884;43.618;1.438;2022-10-16T18:21:36;14.03;;;4.50;;
11655;SDS011;5884;43.618;1.438;2022-10-16T18:24:05;11.43;;;4.07;;
11655;SDS011;5884;43.618;1.438;2022-10-16T18:26:32;10.67;;;4.30;;
11655;SDS011;5884;43.618;1.438;2022-10-16T18:29:00;12.03;;;3.77;;
11655;SDS011;5884;43.618;1.438;2022-10-16T18:31:29;7.63;;;3.80;;
11655;SDS011;5884;43.618;1.438;2022-10-16T18:34:00;10.97;;;4.27;;
11655;SDS011;5884;43.618;1.438;2022-10-16T18:36:28;10.57;;;4.03;;
11655;SDS011;5884;43.618;1.438;2022-10-16T18:38:58;11.10;;;3.80;;
11655;SDS011;5884;43.618;1.438;2022-10-16T18:41:28;9.97;;;3.63;;
11655;SDS011;5884;43.618;1.438;2022-10-16T18:43:56;11.97;;;4.17;;
11655;SDS011;5884;43.618;1.438;2022-10-16T18:46:24;11.70;;;4.27;;
11655;SDS011;5884;43.618;1.438;2022-10-16T18:48:52;13.00;;;4.30;;
11655;SDS011;5884;43.618;1.438;2022-10-16T18:51:23;13.50;;;4.37;;
11655;SDS011;5884;43.618;1.438;2022-10-16T18:53:53;7.50;;;3.60;;
11655;SDS011;5884;43.618;1.438;2022-10-16T18:56:24;16.00;;;4.50;;
11655;SDS011;5884;43.618;1.438;2022-10-16T18:58:54;11.23;;;4.27;;
11655;SDS011;5884;43.618;1.438;2022-10-16T19:01:25;10.43;;;4.20;;
11655;SDS011;5884;43.618;1.438;2022-10-16T19:03:55;11.43;;;4.50;;
11655;SDS011;5884;43.618;1.438;2022-10-16T19:06:24;15.73;;;4.03;;
11655;SDS011;5884;43.618;1.438;2022-10-16T19:08:52;12.40;;;3.83;;
11655;SDS011;5884;43.618;1.438;2022-10-16T19:11:20;9.97;;;4.17;;
11655;SDS011;5884;43.618;1.438;2022-10-16T19:13:50;12.77;;;3.90;;
11655;SDS011;5884;43.618;1.438;2022-10-16T19:16:21;10.87;;;3.83;;
11655;SDS011;5884;43.618;1.438;2022-10-16T19:18:51;11.97;;;3.80;;
11655;SDS011;5884;43.618;1.438;2022-10-16T19:21:21;10.23;;;3.97;;
11655;SDS011;5884;43.618;1.438;2022-10-16T19:23:50;9.60;;;3.73;;
11655;SDS011;5884;43.618;1.438;2022-10-16T19:26:18;8.47;;;4.00;;
11655;SDS011;5884;43.618;1.438;2022-10-16T19:28:47;8.77;;;3.40;;
11655;SDS011;5884;43.618;1.438;2022-10-16T19:31:16;12.40;;;3.70;;
11655;SDS011;5884;43.618;1.438;2022-10-16T19:33:49;14.07;;;4.13;;
11655;SDS011;5884;43.618;1.438;2022-10-16T19:36:19;8.73;;;3.80;;
11655;SDS011;5884;43.618;1.438;2022-10-16T19:38:51;12.17;;;4.07;;
11655;SDS011;5884;43.618;1.438;2022-10-16T19:41:20;8.60;;;3.40;;
11655;SDS011;5884;43.618;1.438;2022-10-16T19:43:48;14.30;;;4.27;;
11655;SDS011;5884;43.618;1.438;2022-10-16T19:46:17;12.60;;;3.60;;
11655;SDS011;5884;43.618;1.438;2022-10-16T19:48:51;8.43;;;3.47;;
11655;SDS011;5884;43.618;1.438;2022-10-16T19:51:20;10.57;;;3.50;;
11655;SDS011;5884;43.618;1.438;2022-10-16T19:53:51;13.90;;;4.23;;
11655;SDS011;5884;43.618;1.438;2022-10-16T19:56:21;8.20;;;3.97;;
11655;SDS011;5884;43.618;1.438;2022-10-16T19:58:51;9.27;;;3.90;;
11655;SDS011;5884;43.618;1.438;2022-10-16T20:01:20;13.63;;;4.60;;
11655;SDS011;5884;43.618;1.438;2022-10-16T20:03:50;12.47;;;3.93;;
11655;SDS011;5884;43.618;1.438;2022-10-16T20:06:18;10.30;;;3.83;;
11655;SDS011;5884;43.618;1.438;2022-10-16T20:08:46;9.33;;;4.00;;
11655;SDS011;5884;43.618;1.438;2022-10-16T20:11:20;10.03;;;3.77;;
11655;SDS011;5884;43.618;1.438;2022-10-16T20:13:51;8.90;;;3.83;;
11655;SDS011;5884;43.618;1.438;2022-10-16T20:16:19;10.10;;;3.70;;
11655;SDS011;5884;43.618;1.438;2022-10-16T20:18:47;9.97;;;3.53;;